Time;durP1;ratioP1;P1;durP2;ratioP2;P2;SDS_P1;SDS_P2;PMS_P1;PMS_P2;Temp;Humidity;BMP_temperature;BMP_pressure;BME280_temperature;BME280_humidity;BME280_pressure;Samples;Min_cycle;Max_cycle;Signal;HPM_P1;HPM_P2
2023/05/18 05:46:10;;;;;;;;;;;;;;;9.68;61.77;98846.97;5954518;23;19921;-62
2023/05/18 05:48:35;;;;;;;;;;;;;;;9.51;60.81;98841.81;4917341;29;19923;-62
2023/05/18 05:51:00;;;;;;;;;;;;;;;9.64;62.83;98842.84;4913639;29;19915;-62
2023/05/18 05:53:25;;;;;;;;;;;;;;;9.69;61.61;98846.03;4914187;29;19935;-62
2023/05/18 05:55:50;;;;;;;;;;;;;;;9.59;61.01;98841.41;4916279;29;19915;-62
2023/05/18 05:58:16;;;;;;;;;;;;;;;9.77;63.07;98844.78;4917639;29;19997;-62
2023/05/18 06:00:42;;;;;;;;;;;;;;;9.75;61.41;98844.88;4900054;29;19915;-62
2023/05/18 06:03:07;;;;;;;;;;;;;;;9.77;62.20;98842.16;4913521;29;19924;-62
2023/05/18 06:05:32;;;;;;;;;;;;;;;9.85;60.91;98846.06;4916178;29;20282;-62
2023/05/18 06:07:58;;;;;;;;;;;;;;;9.77;62.44;98842.16;4915724;29;19942;-62
2023/05/18 06:10:23;;;;;;;;;;;;;;;9.89;61.31;98842.34;4915565;29;19919;-62
2023/05/18 06:12:48;;;;;;;;;;;;;;;9.99;62.25;98842.66;4914335;29;19944;-62
2023/05/18 06:15:13;;;;;;;;;;;;;;;10.04;60.34;98848.47;4916241;29;19915;-62
2023/05/18 06:17:39;;;;;;;;;;;;;;;9.86;59.20;98852.97;4913685;29;20741;-62
2023/05/18 06:20:07;;;;;;;;;;;;;;;10.00;60.30;98844.34;4915857;29;20025;-62
2023/05/18 06:22:33;;;;;;;;;;;;;;;10.00;58.97;98841.72;4898238;29;19927;-62
2023/05/18 06:24:58;;;;;;;;;;;;;;;9.89;57.81;98846.72;4913829;29;19926;-62
2023/05/18 06:27:23;;;;;;;;;;;;;;;10.14;61.19;98844.41;4911792;29;19923;-62
2023/05/18 06:29:48;;;;;;;;;;;;;;;10.23;59.80;98843.91;4913055;29;19951;-62
2023/05/18 06:32:14;;;;;;;;;;;;;;;10.34;59.96;98842.47;4921694;29;20013;-62
2023/05/18 06:34:39;;;;;;;;;;;;;;;10.42;59.02;98840.25;4913533;29;19922;-63
2023/05/18 06:37:04;;;;;;;;;;;;;;;10.48;59.19;98839.91;4911903;29;19933;-62
2023/05/18 06:39:29;;;;;;;;;;;;;;;10.57;58.36;98843.78;4913289;29;20280;-62
2023/05/18 06:41:55;;;;;;;;;;;;;;;10.73;59.63;98838.47;4911029;29;19927;-62
2023/05/18 06:44:20;;;;;;;;;;;;;;;10.88;59.82;98842.81;4907562;29;19929;-63
2023/05/18 06:46:46;;;;;;;;;;;;;;;10.88;57.50;98848.06;4911930;29;19990;-62
2023/05/18 06:49:11;;;;;;;;;;;;;;;10.91;56.41;98847.88;4913649;29;19997;-63
2023/05/18 06:51:36;;;;;;;;;;;;;;;10.85;55.34;98843.00;4912070;29;19919;-62
2023/05/18 06:54:01;;;;;;;;;;;;;;;11.01;58.69;98843.78;4914519;29;19919;-62
2023/05/18 06:56:27;;;;;;;;;;;;;;;11.07;55.53;98848.63;4915800;29;19974;-62
2023/05/18 06:58:52;;;;;;;;;;;;;;;11.08;55.88;98849.47;4914117;29;19922;-62
2023/05/18 07:01:18;;;;;;;;;;;;;;;11.20;55.83;98842.66;4914659;29;19923;-62
2023/05/18 07:03:43;;;;;;;;;;;;;;;11.42;55.54;98835.13;4894262;29;19983;-62
2023/05/18 07:06:08;;;;;;;;;;;;;;;11.51;57.13;98849.47;4897061;29;19919;-62
2023/05/18 07:08:35;;;;;;;;;;;;;;;11.69;54.50;98844.84;4905849;29;20384;-63
2023/05/18 07:11:01;;;;;;;;;;;;;;;11.79;55.37;98846.81;4908879;29;19958;-62
2023/05/18 07:13:26;;;;;;;;;;;;;;;11.91;53.81;98844.38;4914385;29;20409;-63
2023/05/18 07:15:51;;;;;;;;;;;;;;;11.97;55.65;98831.66;4911180;29;19921;-62
2023/05/18 07:18:16;;;;;;;;;;;;;;;12.21;55.67;98841.53;4912666;29;19916;-62
2023/05/18 07:20:42;;;;;;;;;;;;;;;12.31;52.90;98848.72;4915529;29;20298;-63
2023/05/18 07:23:07;;;;;;;;;;;;;;;12.33;50.73;98840.75;4911809;29;19923;-63
2023/05/18 07:25:32;;;;;;;;;;;;;;;12.48;52.34;98838.91;4904228;29;19954;-63
2023/05/18 07:27:57;;;;;;;;;;;;;;;12.58;54.46;98839.97;4914374;29;19958;-62
2023/05/18 07:30:23;;;;;;;;;;;;;;;12.69;53.43;98837.47;4914723;29;19962;-62
2023/05/18 07:32:49;;;;;;;;;;;;;;;12.77;53.64;98831.69;4913835;29;19966;-62
2023/05/18 07:35:15;;;;;;;;;;;;;;;12.95;54.31;98832.22;4913948;29;20381;-63
2023/05/18 07:37:41;;;;;;;;;;;;;;;13.11;53.66;98824.97;4892600;29;19926;-62
2023/05/18 07:40:09;;;;;;;;;;;;;;;13.18;49.97;98828.88;4915564;29;19970;-62
2023/05/18 07:42:34;;;;;;;;;;;;;;;13.29;51.68;98825.50;4911871;29;19926;-62
2023/05/18 07:45:00;;;;;;;;;;;;;;;13.39;50.58;98820.44;4879569;29;19925;-63
2023/05/18 07:47:25;;;;;;;;;;;;;;;13.52;48.93;98821.25;4911441;29;19967;-63
2023/05/18 07:49:50;;;;;;;;;;;;;;;13.60;48.36;98815.44;4919569;29;19927;-62
2023/05/18 07:52:15;;;;;;;;;;;;;;;13.79;50.26;98807.88;4913431;29;19923;-63
2023/05/18 07:54:41;;;;;;;;;;;;;;;13.92;47.38;98813.97;4915872;29;20308;-62
2023/05/18 07:57:06;;;;;;;;;;;;;;;14.00;47.50;98811.63;4914921;29;19915;-62
2023/05/18 07:59:31;;;;;;;;;;;;;;;14.17;50.25;98813.00;4913702;29;20022;-63
2023/05/18 08:01:57;;;;;;;;;;;;;;;14.36;49.59;98817.78;4912324;29;20300;-63
2023/05/18 08:04:23;;;;;;;;;;;;;;;14.50;46.97;98814.13;4913181;29;19942;-63
2023/05/18 08:06:48;;;;;;;;;;;;;;;14.66;45.87;98817.31;4913249;29;20262;-62
2023/05/18 08:09:13;;;;;;;;;;;;;;;14.83;47.31;98816.03;4912270;29;19919;-62
2023/05/18 08:11:38;;;;;;;;;;;;;;;14.86;45.11;98810.50;4912938;29;19915;-62
2023/05/18 08:14:04;;;;;;;;;;;;;;;15.01;46.12;98807.66;4914328;29;19926;-62
2023/05/18 08:16:29;;;;;;;;;;;;;;;15.16;44.53;98811.75;4915309;29;19965;-63
2023/05/18 08:18:54;;;;;;;;;;;;;;;15.29;43.81;98806.34;4914937;29;20404;-62
2023/05/18 08:21:20;;;;;;;;;;;;;;;15.42;44.72;98807.91;4914742;29;19981;-62
2023/05/18 08:23:45;;;;;;;;;;;;;;;15.60;43.23;98804.75;4911467;29;19923;-63
2023/05/18 08:26:11;;;;;;;;;;;;;;;15.70;42.25;98811.03;4891291;29;19923;-63
2023/05/18 08:28:37;;;;;;;;;;;;;;;15.84;41.31;98807.28;4915301;29;19918;-62
2023/05/18 08:31:02;;;;;;;;;;;;;;;16.07;42.11;98808.03;4913359;29;20329;-63
2023/05/18 08:33:27;;;;;;;;;;;;;;;16.36;43.35;98797.72;4895276;29;20473;-63
2023/05/18 08:35:52;;;;;;;;;;;;;;;16.65;41.31;98805.84;4917293;29;20480;-63
2023/05/18 08:38:18;;;;;;;;;;;;;;;16.88;42.00;98789.88;4913574;29;19915;-63
2023/05/18 08:40:52;;;;;;;;;;;;;;;17.06;38.68;98789.13;4920725;29;19926;-63
2023/05/18 08:43:21;;;;;;;;;;;;;;;17.39;39.08;98789.00;4911684;29;19923;-63
2023/05/18 08:45:47;;;;;;;;;;;;;;;17.69;39.86;98794.25;4897247;29;19915;-63
2023/05/18 08:48:14;;;;;;;;;;;;;;;17.87;37.91;98790.97;4898958;29;20961;-63
2023/05/18 08:50:40;;;;;;;;;;;;;;;18.02;36.67;98792.25;4897849;29;19919;-63
2023/05/18 08:53:05;;;;;;;;;;;;;;;18.30;37.96;98795.06;4895740;29;20289;-63
2023/05/18 08:55:35;;;;;;;;;;;;;;;18.51;36.84;98787.78;4911095;29;19926;-62
2023/05/18 08:58:00;;;;;;;;;;;;;;;18.64;35.91;98790.97;4914456;29;19969;-63
2023/05/18 09:00:26;;;;;;;;;;;;;;;18.87;36.42;98790.72;4917396;29;19958;-63
2023/05/18 09:02:51;;;;;;;;;;;;;;;18.98;35.51;98785.22;4901826;29;19923;-63
2023/05/18 09:05:16;;;;;;;;;;;;;;;19.17;35.09;98787.81;4913409;29;19974;-63
2023/05/18 09:07:42;;;;;;;;;;;;;;;19.24;34.45;98789.91;4898495;29;19919;-63
2023/05/18 09:10:09;;;;;;;;;;;;;;;19.42;35.19;98782.81;4901157;29;19919;-63
2023/05/18 09:12:34;;;;;;;;;;;;;;;19.73;34.34;98790.53;4899615;29;19919;-63
2023/05/18 09:14:59;;;;;;;;;;;;;;;19.95;33.80;98782.09;4901896;29;19926;-63
2023/05/18 09:17:24;;;;;;;;;;;;;;;19.87;33.01;98774.03;4897939;29;20293;-63
2023/05/18 09:19:50;;;;;;;;;;;;;;;19.84;32.91;98780.50;4917626;29;19919;-63
2023/05/18 09:22:15;;;;;;;;;;;;;;;19.83;32.48;98784.16;4918110;29;19929;-63
2023/05/18 09:24:40;;;;;;;;;;;;;;;20.04;32.73;98786.53;4916890;29;19942;-63
2023/05/18 09:27:05;;;;;;;;;;;;;;;20.13;32.91;98779.44;4917202;29;19934;-63
2023/05/18 09:29:31;;;;;;;;;;;;;;;20.49;33.02;98779.44;4898762;29;19919;-63
2023/05/18 09:31:56;;;;;;;;;;;;;;;20.50;32.41;98770.47;4915287;29;19929;-63
2023/05/18 09:34:23;;;;;;;;;;;;;;;20.61;31.87;98779.09;4915560;29;19919;-63
2023/05/18 09:36:48;;;;;;;;;;;;;;;20.75;30.89;98785.69;4900117;29;19927;-63
2023/05/18 09:39:14;;;;;;;;;;;;;;;21.04;30.93;98782.69;4897179;29;19934;-63
2023/05/18 09:41:39;;;;;;;;;;;;;;;21.11;30.94;98772.25;4913116;29;20304;-63
2023/05/18 09:44:08;;;;;;;;;;;;;;;21.30;31.80;98779.16;4915782;29;20272;-63
2023/05/18 09:46:36;;;;;;;;;;;;;;;21.44;31.80;98770.59;4916542;29;20312;-63
2023/05/18 09:49:02;;;;;;;;;;;;;;;20.88;30.45;98777.25;4914281;29;19919;-63
2023/05/18 09:51:27;;;;;;;;;;;;;;;21.09;29.66;98756.41;4914244;29;19942;-63
2023/05/18 09:53:56;;;;;;;;;;;;;;;21.23;30.38;98775.44;4902532;29;20067;-63
2023/05/18 09:56:21;;;;;;;;;;;;;;;21.80;29.95;98765.88;4897768;29;19923;-63
2023/05/18 09:58:47;;;;;;;;;;;;;;;22.08;29.08;98756.75;4891959;29;20483;-63
2023/05/18 10:01:12;;;;;;;;;;;;;;;22.46;29.15;98758.78;4916026;29;19979;-63
2023/05/18 10:03:37;;;;;;;;;;;;;;;22.78;28.62;98759.78;4923898;29;20286;-63
2023/05/18 10:06:06;;;;;;;;;;;;;;;23.07;31.60;98764.59;4932212;29;19918;-63
2023/05/18 10:08:31;;;;;;;;;;;;;;;23.21;29.41;98758.53;4921520;29;20348;-63
2023/05/18 10:10:57;;;;;;;;;;;;;;;23.40;27.85;98759.13;4906329;29;19923;-63
2023/05/18 10:13:23;;;;;;;;;;;;;;;23.65;27.00;98751.84;4916499;29;20035;-63
2023/05/18 10:15:50;;;;;;;;;;;;;;;23.36;28.01;98755.13;4922995;29;19919;-63
2023/05/18 10:18:18;;;;;;;;;;;;;;;22.63;26.90;98756.94;4903570;29;19922;-63
2023/05/18 10:20:43;;;;;;;;;;;;;;;22.26;26.94;98750.31;4935458;29;19919;-63
2023/05/18 10:23:09;;;;;;;;;;;;;;;22.84;28.56;98753.75;4917954;29;19970;-63
2023/05/18 10:25:35;;;;;;;;;;;;;;;23.28;27.82;98750.66;4911910;29;19973;-64
2023/05/18 10:28:03;;;;;;;;;;;;;;;22.88;27.00;98749.75;4912140;29;19923;-63
2023/05/18 10:30:28;;;;;;;;;;;;;;;23.33;28.25;98745.63;4899888;29;20005;-63
2023/05/18 10:32:54;;;;;;;;;;;;;;;23.18;26.68;98745.50;4917054;29;20006;-63
2023/05/18 10:35:20;;;;;;;;;;;;;;;23.21;26.45;98734.44;4926158;29;19962;-63
2023/05/18 10:37:49;;;;;;;;;;;;;;;22.62;26.58;98743.75;4906902;29;19922;-63
2023/05/18 10:40:14;;;;;;;;;;;;;;;22.95;27.01;98733.84;4915104;29;19923;-63
2023/05/18 10:42:40;;;;;;;;;;;;;;;22.97;27.88;98739.88;4898870;29;19974;-64
2023/05/18 10:45:05;;;;;;;;;;;;;;;22.76;27.79;98740.41;4901357;29;19970;-63
2023/05/18 10:47:31;;;;;;;;;;;;;;;22.62;27.53;98735.75;4909721;29;19919;-63
2023/05/18 10:49:57;;;;;;;;;;;;;;;23.09;26.80;98734.97;4911309;29;19918;-63
2023/05/18 10:52:22;;;;;;;;;;;;;;;24.23;27.08;98742.44;4932789;29;19925;-63
2023/05/18 10:54:47;;;;;;;;;;;;;;;24.58;25.44;98727.59;4918771;29;20010;-63
2023/05/18 10:57:13;;;;;;;;;;;;;;;24.69;25.71;98725.50;4924348;29;20006;-63
2023/05/18 10:59:42;;;;;;;;;;;;;;;24.11;24.71;98720.59;4911216;29;19915;-63
2023/05/18 11:02:08;;;;;;;;;;;;;;;24.38;24.09;98716.50;4918060;29;19954;-63
2023/05/18 11:04:33;;;;;;;;;;;;;;;24.54;24.40;98717.44;4922075;29;19963;-63
2023/05/18 11:06:58;;;;;;;;;;;;;;;25.03;26.54;98719.59;4920983;29;19926;-64
2023/05/18 11:09:24;;;;;;;;;;;;;;;25.89;24.85;98720.72;4927973;29;19919;-63
2023/05/18 11:11:55;;;;;;;;;;;;;;;26.15;24.90;98714.78;4907755;29;20333;-63
2023/05/18 11:14:26;;;;;;;;;;;;;;;26.54;23.52;98712.66;4932297;29;20018;-63
2023/05/18 11:16:51;;;;;;;;;;;;;;;26.02;22.41;98709.28;4924577;29;19925;-63
2023/05/18 11:19:19;;;;;;;;;;;;;;;26.24;22.79;98707.38;4932668;29;19914;-63
2023/05/18 11:21:45;;;;;;;;;;;;;;;26.12;22.14;98700.84;4924331;29;19923;-63
2023/05/18 11:24:16;;;;;;;;;;;;;;;26.55;22.30;98692.78;4930779;29;19915;-64
2023/05/18 11:26:42;;;;;;;;;;;;;;;26.38;22.02;98697.59;4921760;29;19919;-63
2023/05/18 11:29:17;;;;;;;;;;;;;;;26.22;22.11;98698.69;4918812;29;19926;-64
2023/05/18 11:31:46;;;;;;;;;;;;;;;26.98;21.42;98709.63;4927065;29;19958;-64
2023/05/18 11:34:30;;;;;;;;;;;;;;;27.05;21.03;98694.34;4919767;29;20401;-63
2023/05/18 11:36:55;;;;;;;;;;;;;;;27.17;21.66;98687.38;4914334;29;19923;-63
2023/05/18 11:39:23;;;;;;;;;;;;;;;27.43;21.25;98696.63;4915985;29;19967;-63
2023/05/18 11:42:08;;;;;;;;;;;;;;;26.72;20.69;98694.16;4906111;29;19977;-64
2023/05/18 11:44:33;;;;;;;;;;;;;;;26.90;21.13;98701.69;4931819;29;20014;-63
2023/05/18 11:47:02;;;;;;;;;;;;;;;26.35;21.71;98697.97;4917606;29;20005;-63
2023/05/18 11:49:31;;;;;;;;;;;;;;;26.12;21.43;98692.78;4906695;29;19927;-64
2023/05/18 11:52:01;;;;;;;;;;;;;;;25.29;22.75;98693.16;4912875;29;19967;-63
2023/05/18 11:54:26;;;;;;;;;;;;;;;25.53;24.33;98699.19;4925506;29;19920;-63
2023/05/18 11:56:51;;;;;;;;;;;;;;;26.39;22.15;98696.53;4935121;29;20006;-63
2023/05/18 11:59:16;;;;;;;;;;;;;;;27.16;21.00;98691.13;4916169;29;19923;-63
2023/05/18 12:01:42;;;;;;;;;;;;;;;27.57;20.31;98686.72;4906297;29;19923;-63
2023/05/18 12:04:07;;;;;;;;;;;;;;;28.38;20.24;98692.03;4922415;29;19939;-63
2023/05/18 12:06:32;;;;;;;;;;;;;;;28.58;19.59;98684.78;4933693;29;20330;-63
2023/05/18 12:08:57;;;;;;;;;;;;;;;29.16;19.56;98691.34;4918154;29;19915;-63
2023/05/18 12:11:22;;;;;;;;;;;;;;;29.23;18.63;98678.66;4924207;29;19940;-63
2023/05/18 12:13:50;;;;;;;;;;;;;;;29.18;18.43;98683.84;4922554;29;19962;-63
2023/05/18 12:16:15;;;;;;;;;;;;;;;29.37;19.03;98692.94;4901805;29;19919;-64
2023/05/18 12:18:41;;;;;;;;;;;;;;;29.19;18.55;98685.53;4922057;29;19921;-63
2023/05/18 12:21:06;;;;;;;;;;;;;;;29.75;18.29;98674.88;4923721;29;20018;-63
2023/05/18 12:23:36;;;;;;;;;;;;;;;30.33;18.23;98673.88;4914731;29;20014;-63
2023/05/18 12:26:01;;;;;;;;;;;;;;;31.01;17.28;98678.44;4921974;29;19919;-64
2023/05/18 12:28:27;;;;;;;;;;;;;;;30.88;16.67;98674.00;4917045;29;20034;-63
2023/05/18 12:30:54;;;;;;;;;;;;;;;31.77;16.56;98676.25;4900976;29;19919;-63
2023/05/18 12:33:19;;;;;;;;;;;;;;;31.37;16.32;98672.19;4918332;29;19915;-63
2023/05/18 12:35:45;;;;;;;;;;;;;;;31.77;16.03;98666.25;4910546;29;19923;-64
2023/05/18 12:38:10;;;;;;;;;;;;;;;31.33;16.40;98664.75;4930084;29;20009;-64
2023/05/18 12:40:47;;;;;;;;;;;;;;;32.03;16.29;98669.63;4924483;29;20057;-63
2023/05/18 12:43:12;;;;;;;;;;;;;;;32.09;15.33;98666.81;4925813;29;19923;-64
2023/05/18 12:45:38;;;;;;;;;;;;;;;32.63;15.92;98664.06;4930464;29;19966;-64
2023/05/18 12:48:03;;;;;;;;;;;;;;;32.18;15.69;98666.50;4917583;29;20010;-63
2023/05/18 12:50:28;;;;;;;;;;;;;;;32.42;15.42;98665.47;4921393;29;19962;-63
2023/05/18 12:52:55;;;;;;;;;;;;;;;32.75;15.89;98667.56;4924158;29;19915;-64
2023/05/18 12:55:20;;;;;;;;;;;;;;;32.80;14.80;98664.16;4923486;29;20296;-64
2023/05/18 12:57:46;;;;;;;;;;;;;;;32.94;14.62;98648.44;4929903;29;20294;-63
2023/05/18 13:00:11;;;;;;;;;;;;;;;33.48;14.07;98654.47;4918911;29;19915;-64
2023/05/18 13:02:37;;;;;;;;;;;;;;;34.08;14.15;98650.41;4926733;29;19923;-64
2023/05/18 13:05:06;;;;;;;;;;;;;;;34.01;13.24;98642.41;4918071;29;19923;-64
2023/05/18 13:07:33;;;;;;;;;;;;;;;34.19;13.19;98653.03;4914416;29;19919;-64
2023/05/18 13:10:05;;;;;;;;;;;;;;;34.54;12.53;98645.69;4923135;29;19918;-63
2023/05/18 13:12:34;;;;;;;;;;;;;;;34.91;12.75;98645.94;4912960;29;19915;-64
2023/05/18 13:15:05;;;;;;;;;;;;;;;34.14;12.72;98642.09;4925213;29;19918;-64
2023/05/18 13:17:31;;;;;;;;;;;;;;;34.32;12.63;98645.63;4902765;29;19970;-64
2023/05/18 13:19:56;;;;;;;;;;;;;;;34.56;13.05;98643.56;4917774;29;19923;-64
2023/05/18 13:22:21;;;;;;;;;;;;;;;34.90;12.11;98644.31;4926455;29;19975;-64
2023/05/18 13:24:47;;;;;;;;;;;;;;;34.92;12.83;98644.88;4917689;29;19919;-64
2023/05/18 13:27:12;;;;;;;;;;;;;;;35.13;12.52;98635.88;4926653;29;20369;-64
2023/05/18 13:29:37;;;;;;;;;;;;;;;34.78;12.12;98638.16;4916000;29;20377;-64
2023/05/18 13:32:02;;;;;;;;;;;;;;;35.04;12.58;98651.06;4923254;29;20304;-64
2023/05/18 13:34:27;;;;;;;;;;;;;;;35.68;11.55;98647.72;4918252;29;20300;-64
2023/05/18 13:36:53;;;;;;;;;;;;;;;35.91;12.07;98654.75;4916463;29;20018;-64
2023/05/18 13:39:18;;;;;;;;;;;;;;;36.27;11.33;98653.19;4926526;29;20013;-63
2023/05/18 13:41:43;;;;;;;;;;;;;;;36.56;11.35;98656.41;4934898;29;19948;-64
2023/05/18 13:44:08;;;;;;;;;;;;;;;36.70;10.24;98651.31;4925469;29;19915;-64
2023/05/18 13:46:36;;;;;;;;;;;;;;;35.58;11.64;98644.88;4935131;29;19970;-64
2023/05/18 13:49:01;;;;;;;;;;;;;;;36.28;11.33;98637.63;4908380;29;20292;-64
2023/05/18 13:51:26;;;;;;;;;;;;;;;36.74;11.32;98640.66;4935739;29;19919;-63
2023/05/18 13:53:52;;;;;;;;;;;;;;;37.04;11.68;98640.84;4925611;29;20341;-64
2023/05/18 13:56:17;;;;;;;;;;;;;;;36.24;11.64;98642.78;4934467;29;20103;-63
2023/05/18 13:58:42;;;;;;;;;;;;;;;36.36;11.50;98639.84;4905601;29;19915;-64
2023/05/18 14:01:08;;;;;;;;;;;;;;;36.06;11.48;98635.81;4928375;29;19930;-64
2023/05/18 14:03:35;;;;;;;;;;;;;;;35.84;11.37;98632.31;4928965;29;19921;-63
2023/05/18 14:06:00;;;;;;;;;;;;;;;36.92;11.49;98637.47;4928911;29;19922;-63
2023/05/18 14:08:25;;;;;;;;;;;;;;;37.44;10.97;98627.59;4917663;29;19919;-64
2023/05/18 14:10:50;;;;;;;;;;;;;;;37.48;11.35;98639.66;4917332;29;19915;-64
2023/05/18 14:13:16;;;;;;;;;;;;;;;36.86;11.60;98626.78;4925526;29;19919;-64
2023/05/18 14:15:41;;;;;;;;;;;;;;;36.93;11.61;98622.75;4921208;29;19915;-64
2023/05/18 14:18:06;;;;;;;;;;;;;;;35.66;12.00;98620.69;4925284;29;19934;-64
2023/05/18 14:20:32;;;;;;;;;;;;;;;36.64;11.87;98618.75;4927690;29;19923;-64
2023/05/18 14:22:57;;;;;;;;;;;;;;;36.81;11.25;98620.22;4917468;29;19930;-64
2023/05/18 14:25:22;;;;;;;;;;;;;;;36.83;11.16;98623.50;4926777;29;19974;-64
2023/05/18 14:27:48;;;;;;;;;;;;;;;36.13;11.09;98614.59;4936311;29;20392;-63
2023/05/18 14:30:13;;;;;;;;;;;;;;;36.42;12.15;98616.97;4924592;29;20396;-63
2023/05/18 14:32:38;;;;;;;;;;;;;;;36.73;11.73;98614.44;4917423;29;19938;-63
2023/05/18 14:35:04;;;;;;;;;;;;;;;37.51;10.98;98611.75;4918846;29;19949;-64
2023/05/18 14:37:29;;;;;;;;;;;;;;;36.89;11.03;98616.16;4927145;29;19919;-64
2023/05/18 14:39:54;;;;;;;;;;;;;;;36.82;10.77;98612.81;4922846;29;19914;-63
2023/05/18 14:42:19;;;;;;;;;;;;;;;38.43;10.46;98606.31;4919847;29;20014;-63
2023/05/18 14:44:45;;;;;;;;;;;;;;;37.71;10.19;98605.47;4920340;29;19977;-63
2023/05/18 14:47:10;;;;;;;;;;;;;;;37.93;10.40;98608.81;4903909;29;20309;-64
2023/05/18 14:49:36;;;;;;;;;;;;;;;38.13;9.97;98601.69;4919020;29;20301;-64
2023/05/18 14:52:01;;;;;;;;;;;;;;;38.09;10.09;98606.06;4922334;29;20276;-63
2023/05/18 14:54:26;;;;;;;;;;;;;;;37.64;10.73;98594.00;4917671;29;19923;-64
2023/05/18 14:56:51;;;;;;;;;;;;;;;37.66;10.38;98592.63;4923361;29;19921;-63
2023/05/18 14:59:17;;;;;;;;;;;;;;;37.59;11.10;98585.78;4915783;29;19923;-63
2023/05/18 15:01:42;;;;;;;;;;;;;;;37.56;10.38;98583.59;4927922;29;20053;-63
2023/05/18 15:04:07;;;;;;;;;;;;;;;37.34;10.83;98587.38;4919122;29;20308;-63
2023/05/18 15:06:32;;;;;;;;;;;;;;;37.66;10.70;98591.81;4923936;29;20288;-63
2023/05/18 15:08:58;;;;;;;;;;;;;;;37.42;10.51;98595.03;4904069;29;19942;-63
2023/05/18 15:11:23;;;;;;;;;;;;;;;37.26;10.65;98588.69;4935865;29;19915;-63
2023/05/18 15:13:48;;;;;;;;;;;;;;;37.15;10.92;98580.75;4930149;29;20415;-63
2023/05/18 15:16:14;;;;;;;;;;;;;;;36.99;10.67;98586.16;4927106;29;20357;-63
2023/05/18 15:18:40;;;;;;;;;;;;;;;36.54;11.35;98593.00;4918759;29;19923;-63
2023/05/18 15:21:05;;;;;;;;;;;;;;;36.51;10.41;98596.31;4925025;29;19926;-63
2023/05/18 15:23:31;;;;;;;;;;;;;;;35.53;11.17;98588.38;4920002;29;20385;-63
2023/05/18 15:25:56;;;;;;;;;;;;;;;34.88;12.13;98581.06;4924390;29;20403;-63
2023/05/18 15:28:21;;;;;;;;;;;;;;;34.82;12.97;98582.88;4923545;29;19961;-63
2023/05/18 15:30:46;;;;;;;;;;;;;;;35.00;12.52;98584.50;4919743;29;19990;-63
2023/05/18 15:33:11;;;;;;;;;;;;;;;35.09;11.82;98591.16;4920218;29;19947;-63
2023/05/18 15:35:38;;;;;;;;;;;;;;;35.82;11.93;98590.81;4922591;29;19970;-63
2023/05/18 15:38:03;;;;;;;;;;;;;;;35.48;12.51;98591.03;4922880;29;20407;-63
2023/05/18 15:40:28;;;;;;;;;;;;;;;34.99;12.78;98582.81;4927368;29;19914;-63
2023/05/18 15:42:53;;;;;;;;;;;;;;;33.81;13.25;98577.56;4928811;29;19930;-63
2023/05/18 15:45:19;;;;;;;;;;;;;;;32.88;13.93;98586.91;4927301;29;19997;-63
2023/05/18 15:47:44;;;;;;;;;;;;;;;34.10;13.43;98583.75;4925191;29;20009;-63
2023/05/18 15:50:11;;;;;;;;;;;;;;;34.31;13.24;98586.78;4923905;29;19965;-63
2023/05/18 15:52:36;;;;;;;;;;;;;;;34.89;13.20;98579.97;4882875;29;20381;-63
2023/05/18 15:55:01;;;;;;;;;;;;;;;34.44;13.50;98579.09;4923901;29;19978;-63
2023/05/18 15:57:26;;;;;;;;;;;;;;;34.81;12.41;98583.16;4915065;29;19922;-63
2023/05/18 15:59:52;;;;;;;;;;;;;;;35.15;12.48;98581.13;4923768;29;19921;-64
2023/05/18 16:02:17;;;;;;;;;;;;;;;35.46;12.33;98581.47;4915343;29;20025;-63
2023/05/18 16:04:42;;;;;;;;;;;;;;;35.37;12.12;98573.72;4926805;29;19969;-63
2023/05/18 16:07:07;;;;;;;;;;;;;;;35.54;12.22;98578.28;4923021;29;19920;-63
2023/05/18 16:09:33;;;;;;;;;;;;;;;35.35;12.11;98575.09;4915966;29;20366;-63
2023/05/18 16:11:58;;;;;;;;;;;;;;;34.52;12.55;98567.00;4915342;29;20068;-63
2023/05/18 16:14:23;;;;;;;;;;;;;;;34.81;12.16;98577.72;4923797;29;20101;-63
2023/05/18 16:16:48;;;;;;;;;;;;;;;34.76;12.58;98574.91;4917348;29;19946;-63
2023/05/18 16:19:13;;;;;;;;;;;;;;;34.76;12.64;98577.63;4922496;29;19981;-63
2023/05/18 16:21:39;;;;;;;;;;;;;;;34.86;12.22;98577.75;4926175;29;19946;-62
2023/05/18 16:24:05;;;;;;;;;;;;;;;34.60;12.39;98577.44;4921409;29;19957;-63
2023/05/18 16:26:31;;;;;;;;;;;;;;;34.43;12.46;98573.91;4917884;29;19922;-63
2023/05/18 16:28:56;;;;;;;;;;;;;;;34.32;12.36;98572.13;4919683;29;19974;-63
2023/05/18 16:31:21;;;;;;;;;;;;;;;34.15;12.13;98577.59;4918902;29;19919;-64
2023/05/18 16:33:47;;;;;;;;;;;;;;;34.07;12.05;98578.84;4917972;29;19922;-63
2023/05/18 16:36:12;;;;;;;;;;;;;;;33.28;11.85;98584.22;4920095;29;20013;-63
2023/05/18 16:38:38;;;;;;;;;;;;;;;33.28;11.97;98579.59;4916874;29;20017;-63
2023/05/18 16:41:03;;;;;;;;;;;;;;;33.32;12.82;98585.38;4921293;29;20054;-63
2023/05/18 16:43:28;;;;;;;;;;;;;;;33.17;12.62;98580.44;4915405;29;19923;-63
2023/05/18 16:45:53;;;;;;;;;;;;;;;32.53;13.46;98583.19;4921499;29;19995;-63
2023/05/18 16:48:18;;;;;;;;;;;;;;;31.91;13.68;98575.50;4921586;29;20377;-63
2023/05/18 16:50:44;;;;;;;;;;;;;;;31.25;13.68;98581.03;4919956;29;19918;-63
2023/05/18 16:53:09;;;;;;;;;;;;;;;30.51;14.49;98586.47;4912603;29;19983;-63
2023/05/18 16:55:34;;;;;;;;;;;;;;;30.37;14.06;98580.38;4915454;29;19922;-63
2023/05/18 16:58:00;;;;;;;;;;;;;;;30.30;13.51;98585.03;4914673;29;20316;-63
2023/05/18 17:00:26;;;;;;;;;;;;;;;29.95;13.95;98574.72;4897019;29;20273;-63
2023/05/18 17:02:52;;;;;;;;;;;;;;;29.51;14.37;98578.34;4914161;29;19926;-63
2023/05/18 17:05:20;;;;;;;;;;;;;;;29.43;14.40;98579.44;4914252;29;20444;-63
2023/05/18 17:07:45;;;;;;;;;;;;;;;29.21;14.75;98576.22;4912003;29;19958;-62
2023/05/18 17:10:10;;;;;;;;;;;;;;;28.60;15.62;98574.78;4914635;29;19965;-62
2023/05/18 17:12:37;;;;;;;;;;;;;;;28.07;16.25;98579.41;4915025;29;20278;-63
2023/05/18 17:15:02;;;;;;;;;;;;;;;27.15;16.13;98572.84;4913868;29;20497;-63
2023/05/18 17:17:27;;;;;;;;;;;;;;;26.88;17.29;98579.97;4915137;29;19926;-63
2023/05/18 17:19:53;;;;;;;;;;;;;;;26.54;17.64;98579.00;4920989;29;19942;-62
2023/05/18 17:22:18;;;;;;;;;;;;;;;26.31;18.03;98583.78;4922247;29;20021;-63
2023/05/18 17:24:43;;;;;;;;;;;;;;;25.58;18.69;98578.59;4917894;29;20433;-62
2023/05/18 17:27:08;;;;;;;;;;;;;;;24.91;19.38;98586.91;4932382;29;19919;-62
2023/05/18 17:29:34;;;;;;;;;;;;;;;24.46;19.27;98578.91;4928445;29;19919;-63
2023/05/18 17:31:59;;;;;;;;;;;;;;;23.93;20.09;98594.16;4937275;29;19914;-62
2023/05/18 17:34:25;;;;;;;;;;;;;;;23.65;20.07;98585.81;4930727;29;19935;-62
2023/05/18 17:36:51;;;;;;;;;;;;;;;23.55;20.43;98594.09;4917452;29;19919;-62
2023/05/18 17:39:16;;;;;;;;;;;;;;;23.41;20.31;98593.00;4916711;29;19990;-62
2023/05/18 17:41:42;;;;;;;;;;;;;;;23.43;20.93;98592.81;4926082;29;20010;-62
2023/05/18 17:44:12;;;;;;;;;;;;;;;23.37;21.15;98593.56;4916638;29;20310;-62
2023/05/18 17:46:37;;;;;;;;;;;;;;;23.10;20.73;98595.72;4917498;29;20602;-63
2023/05/18 17:49:03;;;;;;;;;;;;;;;22.95;21.63;98589.41;4914476;29;19998;-63
2023/05/18 17:51:29;;;;;;;;;;;;;;;22.81;21.61;98598.97;4918238;29;20285;-62
2023/05/18 17:53:55;;;;;;;;;;;;;;;22.75;21.50;98605.88;4924370;29;20381;-62
2023/05/18 17:56:20;;;;;;;;;;;;;;;22.46;21.83;98598.44;4933083;29;20289;-63
2023/05/18 17:58:46;;;;;;;;;;;;;;;22.20;22.58;98604.03;4916390;29;19931;-62
2023/05/18 18:01:11;;;;;;;;;;;;;;;22.01;23.16;98602.50;4923861;29;19919;-62
2023/05/18 18:03:36;;;;;;;;;;;;;;;21.72;23.75;98597.69;4926062;29;20009;-62
2023/05/18 18:06:02;;;;;;;;;;;;;;;21.47;24.83;98596.84;4903243;29;20000;-63
2023/05/18 18:08:28;;;;;;;;;;;;;;;21.15;24.94;98599.41;4917300;29;19986;-63
2023/05/18 18:10:53;;;;;;;;;;;;;;;20.93;25.47;98599.00;4918174;29;19994;-62
2023/05/18 18:13:18;;;;;;;;;;;;;;;20.56;25.89;98605.50;4897131;29;19958;-62
2023/05/18 18:15:44;;;;;;;;;;;;;;;20.39;26.79;98607.19;4914775;29;19927;-62
2023/05/18 18:18:09;;;;;;;;;;;;;;;20.33;26.62;98605.16;4912231;29;19970;-62
2023/05/18 18:20:35;;;;;;;;;;;;;;;20.09;27.11;98608.50;4914877;29;19966;-62
2023/05/18 18:23:01;;;;;;;;;;;;;;;19.93;27.68;98608.41;4916704;29;19924;-62
2023/05/18 18:25:28;;;;;;;;;;;;;;;19.89;27.95;98612.38;4915499;29;19967;-62